Time;durP1;ratioP1;P1;durP2;ratioP2;P2;SDS_P1;SDS_P2;PMS_P1;PMS_P2;Temp;Humidity;BMP_temperature;BMP_pressure;BME280_temperature;BME280_humidity;BME280_pressure;Samples;Min_cycle;Max_cycle;Signal;HPM_P1;HPM_P2
2023/03/16 00:01:17;;;;;;;6.88;4.40;;;22.00;48.60;;;;;;4980629;28;20062;-66
2023/03/16 00:03:43;;;;;;;8.00;4.53;;;22.00;48.60;;;;;;4987266;28;20026;-66
2023/03/16 00:06:09;;;;;;;8.18;4.70;;;22.00;48.60;;;;;;4983078;28;20060;-67
2023/03/16 00:08:34;;;;;;;8.27;4.97;;;22.00;48.60;;;;;;4981523;28;20061;-67
2023/03/16 00:11:02;;;;;;;7.07;4.47;;;22.00;48.60;;;;;;4981287;28;20019;-65
2023/03/16 00:13:28;;;;;;;6.20;4.28;;;22.00;48.60;;;;;;4981163;28;20371;-66
2023/03/16 00:15:57;;;;;;;6.75;4.32;;;22.00;48.60;;;;;;4979323;28;20107;-66
2023/03/16 00:18:26;;;;;;;6.20;4.00;;;22.00;48.60;;;;;;4987801;28;20050;-66
2023/03/16 00:20:54;;;;;;;6.03;4.23;;;22.00;49.20;;;;;;4978899;28;20504;-66
2023/03/16 00:23:25;;;;;;;8.15;4.20;;;21.90;48.60;;;;;;4980397;28;20081;-65
2023/03/16 00:25:55;;;;;;;7.97;4.20;;;21.90;48.60;;;;;;4980105;28;20027;-66
2023/03/16 00:28:22;;;;;;;6.80;3.92;;;21.90;48.70;;;;;;4982634;28;20387;-66
2023/03/16 00:30:48;;;;;;;6.15;3.97;;;21.90;48.60;;;;;;4981317;28;20471;-67
2023/03/16 00:33:14;;;;;;;6.85;4.05;;;21.90;48.60;;;;;;4983891;28;20114;-66
2023/03/16 00:35:49;;;;;;;6.20;3.70;;;21.80;48.60;;;;;;4981326;28;20048;-67
2023/03/16 00:38:18;;;;;;;6.35;3.90;;;21.80;48.60;;;;;;4982470;28;20509;-66
2023/03/16 00:40:45;;;;;;;6.68;3.80;;;21.80;48.60;;;;;;4980912;28;20034;-67
2023/03/16 00:43:11;;;;;;;6.13;3.65;;;21.80;48.60;;;;;;4983376;28;20094;-67
2023/03/16 00:45:36;;;;;;;6.68;3.80;;;21.80;48.60;;;;;;4987411;28;20053;-68
2023/03/16 00:48:02;;;;;;;6.45;4.13;;;21.80;48.60;;;;;;4984338;28;20037;-67
2023/03/16 00:50:28;;;;;;;6.95;4.28;;;21.80;48.60;;;;;;4986119;28;20402;-66
2023/03/16 00:52:53;;;;;;;5.63;3.60;;;21.80;48.60;;;;;;4984820;28;20502;-66
2023/03/16 00:55:20;;;;;;;6.43;3.88;;;21.80;48.60;;;;;;4986475;28;20031;-66
2023/03/16 00:57:46;;;;;;;6.53;3.92;;;21.80;48.60;;;;;;4983415;28;20031;-66
2023/03/16 01:00:15;;;;;;;5.30;3.30;;;21.70;48.60;;;;;;4984737;28;20030;-67
2023/03/16 01:02:45;;;;;;;6.97;3.90;;;21.70;48.60;;;;;;4985720;28;20092;-67
2023/03/16 01:05:12;;;;;;;5.10;3.35;;;21.70;48.60;;;;;;4990029;28;20038;-67
2023/03/16 01:07:39;;;;;;;5.47;3.90;;;21.70;48.60;;;;;;4987563;28;20027;-67
2023/03/16 01:10:06;;;;;;;6.00;3.60;;;21.70;48.60;;;;;;4982573;28;20033;-67
2023/03/16 01:12:32;;;;;;;4.75;3.40;;;21.70;49.10;;;;;;4984339;28;20030;-67
2023/03/16 01:14:58;;;;;;;4.75;3.40;;;21.70;48.60;;;;;;4990331;28;20486;-67
2023/03/16 01:17:24;;;;;;;4.82;3.40;;;21.70;48.60;;;;;;4985735;28;20035;-67
2023/03/16 01:19:50;;;;;;;5.20;3.40;;;21.70;48.60;;;;;;4985356;28;20488;-67
2023/03/16 01:22:16;;;;;;;5.22;3.25;;;21.70;48.60;;;;;;4983714;28;20049;-67
2023/03/16 01:24:44;;;;;;;4.78;3.17;;;21.60;48.60;;;;;;4983807;28;20117;-67
2023/03/16 01:27:11;;;;;;;4.97;3.33;;;21.70;48.60;;;;;;4990695;28;20443;-67
2023/03/16 01:29:37;;;;;;;5.10;3.20;;;21.60;48.60;;;;;;4987886;28;20027;-67
2023/03/16 01:32:04;;;;;;;5.50;3.30;;;21.60;48.60;;;;;;4985273;28;20018;-67
2023/03/16 01:34:30;;;;;;;5.47;3.47;;;21.60;48.60;;;;;;4980035;28;20522;-67
2023/03/16 01:36:56;;;;;;;5.20;3.20;;;21.60;48.60;;;;;;4982900;28;20753;-67
2023/03/16 01:39:22;;;;;;;4.38;3.10;;;21.60;48.60;;;;;;4990511;28;20023;-67
2023/03/16 01:41:48;;;;;;;5.03;2.83;;;21.60;48.70;;;;;;4983968;28;20034;-67
2023/03/16 01:44:17;;;;;;;4.20;2.70;;;21.60;48.70;;;;;;4983305;28;20073;-66
2023/03/16 01:46:43;;;;;;;4.43;2.65;;;21.60;48.70;;;;;;4985531;28;20033;-66
2023/03/16 01:49:22;;;;;;;5.68;3.15;;;21.50;48.60;;;;;;4989858;28;20494;-67
2023/03/16 01:52:08;;;;;;;;;;;21.60;48.70;;;;;;4984752;28;20518;-67
2023/03/16 01:54:39;;;;;;;5.32;3.10;;;21.50;48.60;;;;;;4982351;28;19913;-67
2023/03/16 01:57:08;;;;;;;4.68;2.88;;;21.50;48.60;;;;;;4983043;28;20034;-67
2023/03/16 01:59:53;;;;;;;4.90;3.00;;;21.50;48.60;;;;;;4982003;28;20038;-67
2023/03/16 02:02:22;;;;;;;4.50;2.90;;;21.50;48.60;;;;;;4996802;28;20030;-67
2023/03/16 02:05:11;;;;;;;4.43;2.75;;;21.50;48.60;;;;;;4984569;28;20034;-68
2023/03/16 02:07:45;;;;;;;5.32;2.80;;;21.50;48.70;;;;;;4982095;28;20031;-68
2023/03/16 02:10:13;;;;;;;4.13;2.83;;;21.50;48.70;;;;;;4984976;28;20073;-68
2023/03/16 02:12:39;;;;;;;4.60;2.88;;;21.50;48.70;;;;;;4982918;28;20387;-68
2023/03/16 02:15:05;;;;;;;4.28;2.70;;;21.50;48.70;;;;;;4983636;28;20029;-67
2023/03/16 02:17:33;;;;;;;4.50;2.80;;;21.50;48.70;;;;;;4982525;28;20109;-68
2023/03/16 02:20:15;;;;;;;3.90;2.47;;;21.50;48.70;;;;;;4982494;28;20041;-67
2023/03/16 02:22:44;;;;;;;4.30;2.58;;;21.40;48.60;;;;;;4983625;28;20022;-67
2023/03/16 02:25:11;;;;;;;4.72;2.80;;;21.40;48.70;;;;;;4984541;28;20038;-67
2023/03/16 02:28:07;;;;;;;3.95;2.78;;;21.40;48.60;;;;;;4980236;28;20141;-67
2023/03/16 02:30:33;;;;;;;4.25;2.58;;;21.40;49.20;;;;;;4983957;28;20033;-67
2023/03/16 02:32:59;;;;;;;3.78;2.67;;;21.40;48.70;;;;;;4981991;28;20049;-67
2023/03/16 02:35:24;;;;;;;4.32;2.53;;;21.40;48.70;;;;;;4983999;28;20034;-67
2023/03/16 02:37:51;;;;;;;4.10;2.53;;;21.40;48.70;;;;;;4981555;28;20034;-67
2023/03/16 02:40:27;;;;;;;3.90;2.50;;;21.40;48.70;;;;;;4982709;28;20110;-67
2023/03/16 02:43:17;;;;;;;3.28;2.20;;;21.40;48.70;;;;;;4981358;28;20482;-66
2023/03/16 02:45:55;;;;;;;4.00;2.38;;;21.40;48.70;;;;;;4981815;28;20375;-66
2023/03/16 02:48:44;;;;;;;3.50;2.40;;;21.40;48.70;;;;;;4997532;28;20026;-66
2023/03/16 02:51:10;;;;;;;3.37;2.33;;;21.40;48.70;;;;;;4981408;28;20026;-67
2023/03/16 02:53:36;;;;;;;4.43;2.65;;;21.40;48.70;;;;;;4982742;28;20027;-67
2023/03/16 02:56:02;;;;;;;3.63;2.47;;;21.30;48.60;;;;;;4988798;28;20030;-67
2023/03/16 02:58:29;;;;;;;3.92;2.47;;;21.30;48.70;;;;;;4981495;28;20034;-67
2023/03/16 03:00:55;;;;;;;4.07;2.28;;;21.30;48.70;;;;;;4978089;28;20042;-67
2023/03/16 03:03:21;;;;;;;3.67;2.35;;;21.30;48.70;;;;;;4981218;28;20026;-68
2023/03/16 03:05:47;;;;;;;3.80;2.60;;;21.30;48.70;;;;;;4981540;28;20088;-67
2023/03/16 03:08:13;;;;;;;3.20;1.98;;;21.30;48.70;;;;;;4983197;28;20479;-67
2023/03/16 03:10:39;;;;;;;3.65;2.45;;;21.30;48.70;;;;;;4981518;28;20026;-67
2023/03/16 03:13:08;;;;;;;2.90;1.90;;;21.30;48.70;;;;;;4981901;28;20372;-67
2023/03/16 03:15:34;;;;;;;3.85;2.28;;;21.30;48.70;;;;;;4983101;28;20039;-67
2023/03/16 03:18:00;;;;;;;3.15;1.98;;;21.30;48.70;;;;;;4981379;28;20069;-67
2023/03/16 03:20:26;;;;;;;3.20;1.95;;;21.30;48.70;;;;;;4978228;28;20086;-67
2023/03/16 03:22:51;;;;;;;3.67;2.20;;;21.20;48.60;;;;;;4980404;28;20046;-67
2023/03/16 03:25:18;;;;;;;3.10;2.10;;;21.20;48.70;;;;;;4983107;28;20528;-67
2023/03/16 03:27:45;;;;;;;3.60;2.10;;;21.20;48.70;;;;;;4982879;28;20038;-67
2023/03/16 03:30:14;;;;;;;3.13;2.00;;;21.20;48.70;;;;;;4988238;28;20105;-68
2023/03/16 03:32:40;;;;;;;3.35;2.05;;;21.20;48.70;;;;;;4980383;28;20030;-68
2023/03/16 03:35:07;;;;;;;3.67;2.30;;;21.20;48.60;;;;;;4984563;28;20486;-67
2023/03/16 03:37:33;;;;;;;3.30;1.83;;;21.20;48.70;;;;;;4979887;28;20030;-67
2023/03/16 03:39:58;;;;;;;2.85;1.92;;;21.20;48.70;;;;;;4982220;28;20122;-67
2023/03/16 03:42:24;;;;;;;4.47;2.17;;;21.20;48.70;;;;;;4980880;28;20038;-67
2023/03/16 03:44:51;;;;;;;3.33;2.00;;;21.20;48.70;;;;;;4982145;28;20026;-67
2023/03/16 03:47:18;;;;;;;3.10;1.85;;;21.20;48.70;;;;;;4984336;28;20036;-67
2023/03/16 03:49:43;;;;;;;3.20;2.00;;;21.20;48.70;;;;;;4981560;28;20027;-67
2023/03/16 03:52:09;;;;;;;3.15;1.98;;;21.20;48.70;;;;;;4979729;28;20451;-67
2023/03/16 03:54:35;;;;;;;3.90;2.20;;;21.20;48.70;;;;;;4985836;28;20105;-68
2023/03/16 03:57:01;;;;;;;3.17;1.95;;;21.20;48.70;;;;;;4983693;28;20125;-67
2023/03/16 03:59:26;;;;;;;3.33;2.00;;;21.20;48.70;;;;;;4995980;28;20022;-68
2023/03/16 04:01:55;;;;;;;3.20;1.92;;;21.10;48.60;;;;;;4981690;28;20066;-67
2023/03/16 04:04:20;;;;;;;3.45;1.95;;;21.20;48.70;;;;;;4982758;28;20035;-67
2023/03/16 04:06:46;;;;;;;2.80;1.80;;;21.10;48.60;;;;;;4983349;28;20433;-67
2023/03/16 04:09:12;;;;;;;2.88;1.92;;;21.10;48.60;;;;;;4984469;28;20466;-68
2023/03/16 04:11:38;;;;;;;3.13;1.70;;;21.10;48.60;;;;;;4981856;28;20023;-68
2023/03/16 04:14:04;;;;;;;2.88;1.90;;;21.10;48.60;;;;;;4983496;28;20085;-67
2023/03/16 04:16:30;;;;;;;2.55;1.90;;;21.10;48.60;;;;;;4988399;28;20073;-67
2023/03/16 04:18:56;;;;;;;2.97;1.92;;;21.10;48.60;;;;;;4983534;28;20058;-67
2023/03/16 04:21:22;;;;;;;3.08;2.10;;;21.10;48.60;;;;;;4990406;28;20038;-68
2023/03/16 04:23:53;;;;;;;3.00;2.10;;;21.10;48.70;;;;;;4983139;28;20026;-67
2023/03/16 04:26:19;;;;;;;2.70;1.67;;;21.10;49.20;;;;;;4985108;28;20193;-67
2023/03/16 04:28:44;;;;;;;3.00;1.70;;;21.10;48.60;;;;;;4987632;28;20038;-67
2023/03/16 04:31:10;;;;;;;3.20;1.85;;;21.10;48.60;;;;;;4988298;28;20363;-67
2023/03/16 04:33:37;;;;;;;2.80;1.80;;;21.10;48.70;;;;;;4985005;28;20137;-67
2023/03/16 04:36:05;;;;;;;2.83;1.67;;;21.10;48.70;;;;;;4987266;28;20030;-67
2023/03/16 04:38:34;;;;;;;2.83;1.70;;;21.10;48.60;;;;;;4986856;28;20504;-67
2023/03/16 04:41:01;;;;;;;2.58;1.73;;;21.10;48.60;;;;;;4985071;28;20475;-67
2023/03/16 04:43:27;;;;;;;3.67;1.85;;;21.10;48.70;;;;;;4984735;28;20506;-68
2023/03/16 04:45:53;;;;;;;2.65;1.67;;;21.10;48.60;;;;;;4986672;28;20494;-67
2023/03/16 04:48:19;;;;;;;2.70;1.50;;;21.10;48.70;;;;;;4984234;28;20026;-67
2023/03/16 04:50:46;;;;;;;2.65;1.70;;;21.10;48.70;;;;;;4991278;28;20050;-67
2023/03/16 04:53:12;;;;;;;2.78;1.58;;;21.10;48.70;;;;;;4985093;28;20047;-66
2023/03/16 04:55:37;;;;;;;2.30;1.52;;;21.00;48.60;;;;;;4984939;28;20027;-67
2023/03/16 04:58:03;;;;;;;2.92;1.75;;;21.00;48.60;;;;;;4986968;28;20383;-67
2023/03/16 05:00:29;;;;;;;2.83;1.50;;;21.00;48.60;;;;;;4986507;28;20493;-67
2023/03/16 05:02:54;;;;;;;2.80;1.80;;;21.00;48.60;;;;;;4986755;28;20498;-67
2023/03/16 05:05:20;;;;;;;2.50;1.60;;;21.00;48.70;;;;;;4984426;28;20414;-67
2023/03/16 05:07:47;;;;;;;2.50;1.60;;;21.00;48.70;;;;;;4984327;28;20112;-67
2023/03/16 05:10:15;;;;;;;2.92;1.63;;;21.00;48.70;;;;;;4986396;28;20439;-66
2023/03/16 05:12:41;;;;;;;2.38;1.42;;;21.00;48.70;;;;;;4983675;28;20061;-66
2023/03/16 05:15:08;;;;;;;2.28;1.70;;;21.00;48.70;;;;;;4983457;28;20525;-66
2023/03/16 05:17:34;;;;;;;2.63;1.55;;;21.00;48.70;;;;;;4985245;28;20057;-66
2023/03/16 05:19:59;;;;;;;2.40;1.63;;;21.00;48.70;;;;;;4982670;28;20035;-66
2023/03/16 05:22:25;;;;;;;2.53;1.65;;;21.00;48.70;;;;;;4987569;28;20031;-66
2023/03/16 05:24:50;;;;;;;1.88;1.38;;;21.00;48.70;;;;;;4984492;28;20034;-66
2023/03/16 05:27:16;;;;;;;2.38;1.50;;;21.00;48.70;;;;;;4984196;28;20033;-66
2023/03/16 05:29:45;;;;;;;2.28;1.45;;;21.00;48.70;;;;;;4983586;28;20030;-67
2023/03/16 05:32:15;;;;;;;2.55;1.40;;;21.00;48.70;;;;;;4984328;28;20031;-67
2023/03/16 05:34:42;;;;;;;2.15;1.50;;;21.00;48.70;;;;;;4983740;28;20546;-67
2023/03/16 05:37:08;;;;;;;2.17;1.30;;;21.00;49.30;;;;;;4982698;28;20023;-66
2023/03/16 05:39:34;;;;;;;2.65;1.35;;;21.00;48.80;;;;;;4985267;28;20027;-66
2023/03/16 05:42:00;;;;;;;2.17;1.30;;;21.00;48.80;;;;;;4987215;28;20030;-66
2023/03/16 05:44:25;;;;;;;2.25;1.40;;;21.00;48.80;;;;;;4984724;28;20027;-66
2023/03/16 05:46:51;;;;;;;2.38;1.40;;;21.00;48.80;;;;;;4985353;28;20550;-67
2023/03/16 05:49:16;;;;;;;2.00;1.30;;;21.00;48.80;;;;;;4985174;28;20027;-67
2023/03/16 05:51:42;;;;;;;2.20;1.30;;;20.90;48.80;;;;;;4984492;28;20080;-67
2023/03/16 05:54:08;;;;;;;2.70;1.63;;;20.90;48.90;;;;;;4985641;28;20462;-67
2023/03/16 05:56:34;;;;;;;2.45;1.20;;;20.90;49.00;;;;;;4984283;28;20026;-67
2023/03/16 05:59:00;;;;;;;2.10;1.40;;;20.90;49.20;;;;;;4985622;28;20030;-67
2023/03/16 06:01:26;;;;;;;3.17;1.40;;;20.90;49.20;;;;;;4985930;28;20030;-66
2023/03/16 06:03:52;;;;;;;2.47;1.50;;;20.90;49.30;;;;;;4983730;28;20030;-66
2023/03/16 06:06:21;;;;;;;2.13;1.30;;;20.90;49.30;;;;;;4988904;28;20443;-68
2023/03/16 06:08:47;;;;;;;;;;;20.90;49.80;;;;;;4980866;28;20057;-68
2023/03/16 06:11:13;;;;;;;1.83;1.20;;;20.90;49.30;;;;;;5013983;28;20415;-68
2023/03/16 06:13:39;;;;;;;2.03;1.30;;;20.90;49.20;;;;;;4985812;28;20113;-68
2023/03/16 06:16:05;;;;;;;2.35;1.33;;;20.90;49.30;;;;;;4984219;28;20113;-68
2023/03/16 06:18:32;;;;;;;1.92;1.10;;;20.90;49.30;;;;;;4983906;28;20057;-68
2023/03/16 06:20:58;;;;;;;2.25;1.23;;;20.90;49.30;;;;;;4989494;28;20022;-68
2023/03/16 06:23:25;;;;;;;2.95;1.27;;;20.90;49.30;;;;;;4983565;28;20035;-67
2023/03/16 06:25:53;;;;;;;1.60;1.00;;;20.90;49.30;;;;;;4982449;28;20525;-67
2023/03/16 06:28:19;;;;;;;3.47;1.20;;;20.80;49.30;;;;;;4987836;28;20463;-68
2023/03/16 06:30:45;;;;;;;1.83;1.13;;;20.80;49.30;;;;;;4982119;28;20393;-68
2023/03/16 06:33:11;;;;;;;2.47;1.17;;;20.80;49.30;;;;;;4981993;28;20505;-68
2023/03/16 06:35:36;;;;;;;2.33;1.30;;;20.80;49.30;;;;;;4981037;28;20457;-68
2023/03/16 06:38:02;;;;;;;1.90;1.20;;;20.80;49.30;;;;;;4981879;28;20030;-68
2023/03/16 06:40:27;;;;;;;2.28;1.20;;;20.80;49.30;;;;;;4981236;28;20487;-68
2023/03/16 06:42:53;;;;;;;2.05;1.10;;;20.80;49.30;;;;;;4981451;28;20037;-68
2023/03/16 06:45:21;;;;;;;2.30;1.30;;;20.80;49.80;;;;;;4994287;28;20030;-68
2023/03/16 06:47:47;;;;;;;1.88;1.17;;;20.80;49.30;;;;;;4981127;28;20029;-68
2023/03/16 06:50:13;;;;;;;1.92;1.23;;;20.80;49.30;;;;;;4979275;28;20498;-68
2023/03/16 06:52:39;;;;;;;2.35;1.20;;;20.80;49.30;;;;;;4981954;28;20030;-68
2023/03/16 06:55:05;;;;;;;1.95;1.20;;;20.80;49.30;;;;;;4983408;28;20375;-68
2023/03/16 06:57:30;;;;;;;2.13;1.13;;;20.80;49.30;;;;;;4980736;28;20050;-68
2023/03/16 06:59:56;;;;;;;1.85;1.10;;;20.80;49.30;;;;;;4983868;28;20109;-68
2023/03/16 07:02:22;;;;;;;2.20;1.10;;;20.80;49.30;;;;;;4986182;28;20106;-68
2023/03/16 07:04:49;;;;;;;2.50;1.20;;;20.80;49.30;;;;;;4983050;28;20027;-68
2023/03/16 07:07:16;;;;;;;2.35;1.38;;;20.80;49.30;;;;;;4981567;28;20482;-68
2023/03/16 07:09:41;;;;;;;2.78;1.50;;;20.80;49.30;;;;;;4981695;28;20479;-68
2023/03/16 07:12:08;;;;;;;2.10;1.17;;;20.80;49.30;;;;;;4983703;28;20034;-68
2023/03/16 07:14:34;;;;;;;2.17;1.20;;;20.80;49.30;;;;;;4979513;28;20479;-68
2023/03/16 07:17:00;;;;;;;2.35;1.20;;;20.80;49.30;;;;;;4981176;28;20030;-67
2023/03/16 07:19:26;;;;;;;2.03;1.20;;;20.80;49.30;;;;;;4982525;28;20444;-67
2023/03/16 07:21:52;;;;;;;2.10;1.20;;;20.80;49.30;;;;;;4980843;28;20053;-67
2023/03/16 07:24:17;;;;;;;2.50;1.20;;;20.80;49.30;;;;;;4981906;28;20492;-67
2023/03/16 07:26:43;;;;;;;2.35;1.38;;;20.80;49.30;;;;;;4984382;28;20058;-67
2023/03/16 07:29:09;;;;;;;2.70;1.30;;;20.80;49.30;;;;;;4981828;28;20030;-64
2023/03/16 07:31:35;;;;;;;2.30;1.35;;;20.80;49.30;;;;;;4981279;28;20320;-65
2023/03/16 07:34:02;;;;;;;1.98;1.20;;;20.80;49.30;;;;;;4982363;28;20374;-65
2023/03/16 07:36:28;;;;;;;2.40;1.25;;;20.80;49.30;;;;;;4981880;28;20073;-65
2023/03/16 07:38:54;;;;;;;2.10;1.15;;;20.80;49.80;;;;;;4983902;28;20034;-65
2023/03/16 07:41:20;;;;;;;1.80;1.00;;;20.70;49.20;;;;;;4981424;28;20066;-65
2023/03/16 07:43:46;;;;;;;2.50;1.20;;;20.80;49.20;;;;;;4982066;28;20023;-64
2023/03/16 07:46:12;;;;;;;2.42;1.17;;;20.80;49.20;;;;;;4982444;28;20364;-65
2023/03/16 07:48:42;;;;;;;2.38;1.15;;;20.80;49.30;;;;;;4982851;28;20097;-67
2023/03/16 07:51:09;;;;;;;2.10;1.10;;;20.80;49.30;;;;;;4983466;28;20026;-67
2023/03/16 07:53:34;;;;;;;1.92;1.20;;;20.70;49.20;;;;;;4985647;28;20043;-67
2023/03/16 07:56:00;;;;;;;2.55;1.30;;;20.70;49.20;;;;;;5001367;28;20095;-67
2023/03/16 07:58:26;;;;;;;2.72;1.20;;;20.70;49.20;;;;;;4986784;28;20030;-68
2023/03/16 08:00:55;;;;;;;2.78;1.13;;;20.70;49.20;;;;;;4987815;28;20042;-68
2023/03/16 08:03:21;;;;;;;1.80;1.00;;;20.70;49.20;;;;;;4998672;28;20030;-67
2023/03/16 08:05:47;;;;;;;2.28;1.40;;;20.70;49.10;;;;;;4984893;28;20501;-67
2023/03/16 08:08:14;;;;;;;2.28;1.27;;;20.70;49.10;;;;;;4987010;28;20026;-67
2023/03/16 08:10:40;;;;;;;1.90;1.20;;;20.70;49.10;;;;;;4987870;28;20010;-67
2023/03/16 08:13:06;;;;;;;1.95;1.20;;;20.70;49.10;;;;;;4984210;28;20034;-67
2023/03/16 08:15:32;;;;;;;3.25;1.10;;;20.70;49.20;;;;;;4984883;28;20517;-67
2023/03/16 08:18:01;;;;;;;2.13;1.20;;;20.70;49.20;;;;;;4983732;28;20049;-67
2023/03/16 08:20:27;;;;;;;2.25;1.30;;;20.70;49.10;;;;;;4982514;28;20037;-65
2023/03/16 08:22:53;;;;;;;1.80;1.10;;;20.70;49.10;;;;;;4985642;28;20044;-65
2023/03/16 08:25:19;;;;;;;1.70;1.00;;;20.70;49.10;;;;;;4986460;28;20026;-65
2023/03/16 08:27:45;;;;;;;2.25;1.20;;;20.70;49.10;;;;;;4986111;28;20042;-65
2023/03/16 08:30:12;;;;;;;1.88;1.10;;;20.70;49.10;;;;;;4989952;28;20173;-65
2023/03/16 08:32:39;;;;;;;3.78;1.30;;;20.70;49.10;;;;;;4999265;28;20120;-65
2023/03/16 08:35:13;;;;;;;1.65;1.10;;;20.70;49.00;;;;;;4987589;28;20256;-65
2023/03/16 08:37:40;;;;;;;2.33;1.15;;;20.70;49.10;;;;;;4986486;28;20042;-65
2023/03/16 08:40:09;;;;;;;2.92;1.30;;;20.60;49.00;;;;;;4985662;28;20030;-65
2023/03/16 08:42:36;;;;;;;2.13;1.17;;;20.70;49.10;;;;;;4984500;28;20100;-65
2023/03/16 08:45:08;;;;;;;1.90;1.10;;;20.70;49.00;;;;;;4985474;28;20118;-65
2023/03/16 08:47:34;;;;;;;3.35;1.20;;;20.70;49.10;;;;;;4988736;28;20029;-66
2023/03/16 08:50:00;;;;;;;2.17;1.10;;;20.70;49.00;;;;;;4984339;28;20479;-65
2023/03/16 08:52:26;;;;;;;2.00;1.20;;;20.70;49.00;;;;;;4985472;28;20026;-65
2023/03/16 08:54:52;;;;;;;1.63;1.02;;;20.60;49.00;;;;;;4985954;28;20037;-65
2023/03/16 08:57:17;;;;;;;2.00;0.90;;;20.70;49.00;;;;;;4983970;28;20064;-65
2023/03/16 08:59:43;;;;;;;2.13;1.17;;;20.60;49.00;;;;;;4984198;28;20102;-66
2023/03/16 09:02:13;;;;;;;2.85;1.33;;;20.70;49.00;;;;;;4985531;28;20117;-65
2023/03/16 09:04:39;;;;;;;1.80;1.08;;;20.70;49.10;;;;;;4984758;28;20109;-65
2023/03/16 09:07:05;;;;;;;3.13;1.30;;;20.70;49.00;;;;;;4984860;28;20114;-65
2023/03/16 09:09:31;;;;;;;1.60;1.00;;;20.60;49.00;;;;;;4983994;28;20030;-65
2023/03/16 09:11:57;;;;;;;1.63;1.10;;;20.60;49.00;;;;;;4985945;28;20027;-65
2023/03/16 09:14:24;;;;;;;2.45;1.10;;;20.60;49.00;;;;;;4983731;28;20030;-65
2023/03/16 09:16:51;;;;;;;2.33;1.00;;;20.60;49.00;;;;;;4981174;28;20134;-65
2023/03/16 09:19:16;;;;;;;1.55;1.00;;;20.60;49.50;;;;;;4983726;28;20034;-65
2023/03/16 09:21:43;;;;;;;2.40;1.27;;;20.60;49.00;;;;;;4983716;28;20030;-65
2023/03/16 09:24:09;;;;;;;1.90;1.10;;;20.60;49.00;;;;;;4987406;28;20026;-65
2023/03/16 09:26:36;;;;;;;2.42;1.00;;;20.60;49.00;;;;;;4996723;28;20089;-66
2023/03/16 09:29:02;;;;;;;2.40;1.10;;;20.60;49.00;;;;;;4983496;28;20113;-65
2023/03/16 09:31:29;;;;;;;1.80;1.10;;;20.60;49.00;;;;;;4986929;28;20520;-66
2023/03/16 09:33:54;;;;;;;2.75;1.40;;;20.60;49.00;;;;;;4984145;28;20425;-67
2023/03/16 09:36:20;;;;;;;2.40;1.20;;;20.60;49.00;;;;;;4982883;28;20031;-67
2023/03/16 09:38:46;;;;;;;2.70;1.23;;;20.60;49.00;;;;;;4984552;28;20042;-67
2023/03/16 09:41:34;;;;;;;1.85;1.20;;;20.60;49.10;;;;;;4985603;28;20030;-68
2023/03/16 09:44:25;;;;;;;1.80;1.00;;;20.60;49.10;;;;;;4985916;28;20105;-68
2023/03/16 09:46:51;;;;;;;2.85;1.30;;;20.60;49.10;;;;;;4986993;28;20441;-68
2023/03/16 09:49:26;;;;;;;2.95;1.35;;;20.60;49.10;;;;;;4983683;28;20023;-68
2023/03/16 09:52:03;;;;;;;2.85;1.20;;;20.60;49.10;;;;;;4986307;28;20023;-68
2023/03/16 09:54:42;;;;;;;2.20;1.27;;;20.60;49.10;;;;;;4982244;28;20034;-68
2023/03/16 09:57:19;;;;;;;2.33;1.27;;;20.50;49.00;;;;;;4981036;28;20516;-68
2023/03/16 09:59:45;;;;;;;2.92;1.20;;;20.60;49.10;;;;;;4984110;28;20125;-68
2023/03/16 10:02:45;;;;;;;1.63;1.00;;;20.50;49.50;;;;;;4984770;28;20121;-68
2023/03/16 10:05:14;;;;;;;2.40;1.20;;;20.60;49.10;;;;;;4982562;28;20065;-68
2023/03/16 10:07:48;;;;;;;2.05;1.20;;;20.60;49.10;;;;;;4982515;28;20054;-68
2023/03/16 10:10:18;;;;;;;1.58;1.10;;;20.50;49.00;;;;;;4981572;28;20027;-68
2023/03/16 10:12:50;;;;;;;1.85;1.10;;;20.50;49.00;;;;;;4983946;28;20070;-68
2023/03/16 10:15:25;;;;;;;1.52;1.00;;;20.60;49.10;;;;;;4982467;28;20363;-68
2023/03/16 10:17:54;;;;;;;2.20;1.10;;;20.60;49.00;;;;;;4982461;28;20018;-68
2023/03/16 10:20:22;;;;;;;1.77;1.10;;;20.60;49.00;;;;;;4981929;28;20029;-68
2023/03/16 10:22:51;;;;;;;1.48;0.93;;;20.60;49.00;;;;;;4982640;28;20027;-68
2023/03/16 10:25:38;;;;;;;2.85;1.08;;;20.50;49.00;;;;;;4983117;28;20027;-67
2023/03/16 10:28:04;;;;;;;2.08;0.93;;;20.50;49.00;;;;;;4984449;28;20030;-67
2023/03/16 10:30:33;;;;;;;2.50;1.20;;;20.60;49.00;;;;;;4988461;28;20391;-67
2023/03/16 10:33:10;;;;;;;1.60;0.98;;;20.50;49.00;;;;;;4983537;28;20041;-67
2023/03/16 10:35:56;;;;;;;1.50;1.00;;;20.60;49.50;;;;;;4980373;28;20140;-67
2023/03/16 10:38:41;;;;;;;2.13;1.10;;;20.60;49.00;;;;;;4990178;28;20053;-67
2023/03/16 10:41:45;;;;;;;1.63;0.90;;;20.50;49.00;;;;;;5000596;28;20030;-67
2023/03/16 10:44:21;;;;;;;1.58;0.93;;;20.50;49.00;;;;;;4980770;28;20038;-67
2023/03/16 10:46:48;;;;;;;1.40;0.80;;;20.50;49.00;;;;;;4981937;28;20506;-67
2023/03/16 10:49:24;;;;;;;1.90;1.05;;;20.50;49.00;;;;;;4980927;28;20030;-67
2023/03/16 10:51:51;;;;;;;1.33;0.90;;;20.50;49.00;;;;;;4984037;28;20038;-67
2023/03/16 10:54:48;;;;;;;2.25;1.00;;;20.50;49.00;;;;;;4985879;28;20030;-68
2023/03/16 10:57:32;;;;;;;1.60;1.00;;;20.50;49.00;;;;;;4978885;28;20402;-67
2023/03/16 11:00:26;;;;;;;1.75;0.90;;;20.50;49.00;;;;;;4981731;28;20486;-68
2023/03/16 11:02:54;;;;;;;1.77;1.00;;;20.50;49.00;;;;;;4980103;28;20038;-68
2023/03/16 11:05:33;;;;;;;1.92;1.00;;;20.50;49.00;;;;;;4984813;28;20495;-68
2023/03/16 11:08:13;;;;;;;1.70;1.00;;;20.50;48.90;;;;;;4981929;28;20415;-68
2023/03/16 11:10:41;;;;;;;1.98;0.90;;;20.50;49.00;;;;;;4981092;28;20054;-68
2023/03/16 11:13:18;;;;;;;2.33;1.05;;;20.50;49.00;;;;;;4983984;28;20025;-67
2023/03/16 11:15:48;;;;;;;1.75;1.10;;;20.50;49.00;;;;;;4982731;28;20043;-68
2023/03/16 11:18:28;;;;;;;2.40;1.48;;;20.50;49.00;;;;;;4980725;28;20035;-67
2023/03/16 11:20:56;;;;;;;1.42;0.80;;;20.50;49.00;;;;;;4997594;28;20065;-68
2023/03/16 11:23:30;;;;;;;1.15;0.80;;;20.50;49.00;;;;;;4980614;28;20391;-68
2023/03/16 11:26:00;;;;;;;1.60;1.00;;;20.50;49.00;;;;;;4977805;28;20059;-68
2023/03/16 11:28:37;;;;;;;1.55;1.00;;;20.50;49.00;;;;;;4983472;28;20041;-68
2023/03/16 11:31:13;;;;;;;1.83;0.95;;;20.50;49.00;;;;;;4983081;28;20027;-69
2023/03/16 11:33:39;;;;;;;2.17;1.00;;;20.50;49.00;;;;;;4982724;28;20034;-67
2023/03/16 11:36:28;;;;;;;1.40;1.00;;;20.50;49.00;;;;;;4982227;28;20034;-68
2023/03/16 11:39:05;;;;;;;1.88;0.90;;;20.50;49.00;;;;;;4983915;28;20054;-67
2023/03/16 11:41:34;;;;;;;1.58;1.15;;;20.60;49.00;;;;;;4982122;28;20540;-68
2023/03/16 11:44:21;;;;;;;1.00;0.80;;;20.50;48.90;;;;;;4986988;28;20031;-68
2023/03/16 11:47:14;;;;;;;1.38;0.80;;;20.60;48.90;;;;;;4982162;28;20085;-67
2023/03/16 11:50:03;;;;;;;1.52;0.80;;;20.60;49.40;;;;;;5000323;28;20026;-67
2023/03/16 11:52:56;;;;;;;0.98;0.70;;;20.60;48.90;;;;;;4980258;28;20603;-67
2023/03/16 11:55:41;;;;;;;1.48;0.88;;;20.60;48.90;;;;;;4981473;28;20033;-67
2023/03/16 11:58:14;;;;;;;1.33;0.88;;;20.60;48.90;;;;;;4980919;28;20027;-67
2023/03/16 12:00:56;;;;;;;1.83;1.00;;;20.60;48.90;;;;;;4982343;28;20030;-67
2023/03/16 12:03:44;;;;;;;1.42;0.80;;;20.60;48.90;;;;;;4979830;28;20035;-67
2023/03/16 12:06:28;;;;;;;1.15;0.80;;;20.60;48.90;;;;;;4980856;28;20379;-67
2023/03/16 12:09:16;;;;;;;1.27;0.73;;;20.60;48.90;;;;;;4996330;28;20031;-68
2023/03/16 12:12:21;;;;;;;1.70;0.90;;;20.60;48.80;;;;;;4982849;28;20502;-67
2023/03/16 12:15:07;;;;;;;1.02;0.80;;;20.60;48.80;;;;;;4980862;28;20018;-68
2023/03/16 12:17:36;;;;;;;1.45;1.00;;;20.60;48.80;;;;;;4980349;28;20483;-67
2023/03/16 12:20:23;;;;;;;1.08;0.80;;;20.60;48.80;;;;;;4981961;28;20030;-67
2023/03/16 12:23:03;;;;;;;1.40;0.90;;;20.60;48.80;;;;;;4984057;28;20030;-67
2023/03/16 12:25:35;;;;;;;1.50;0.95;;;20.60;48.80;;;;;;4980157;28;20418;-67
2023/03/16 12:28:06;;;;;;;1.25;0.80;;;20.60;48.80;;;;;;4981889;28;20027;-67
2023/03/16 12:30:50;;;;;;;2.35;1.00;;;20.60;49.30;;;;;;4982273;28;20027;-67
2023/03/16 12:34:09;;;;;;;1.20;0.85;;;20.60;48.80;;;;;;4987013;28;20109;-67
2023/03/16 12:36:56;;;;;;;1.40;0.90;;;20.60;48.80;;;;;;4960681;28;20137;-67
2023/03/16 12:39:50;;;;;;;1.63;0.90;;;20.60;48.80;;;;;;4980977;28;20058;-68
2023/03/16 12:42:36;;;;;;;1.50;0.90;;;20.60;48.80;;;;;;4981866;28;20026;-67
2023/03/16 12:45:03;;;;;;;1.17;0.80;;;20.60;48.80;;;;;;4988270;28;20034;-67
2023/03/16 12:47:44;;;;;;;1.60;0.90;;;20.60;48.80;;;;;;4985228;28;20134;-67
2023/03/16 12:50:14;;;;;;;1.63;0.88;;;20.60;48.80;;;;;;4984233;28;20485;-67
2023/03/16 12:52:41;;;;;;;1.55;0.90;;;20.70;48.80;;;;;;4989855;28;20041;-67
2023/03/16 12:55:13;;;;;;;2.88;0.90;;;20.70;48.80;;;;;;4987399;28;20023;-68
2023/03/16 12:57:41;;;;;;;1.10;0.80;;;20.60;48.80;;;;;;4985084;28;20030;-67
2023/03/16 13:00:08;;;;;;;0.98;0.73;;;20.60;48.80;;;;;;4983673;28;20035;-68
2023/03/16 13:02:37;;;;;;;1.42;0.90;;;20.60;48.80;;;;;;4984725;28;20500;-68